createdAt,value
2023-11-02T00:01:09.716Z,10.0
2023-11-02T00:05:08.950Z,10.0
2023-11-02T00:10:09.038Z,10.0
2023-11-02T00:15:08.269Z,10.1
2023-11-02T00:20:08.544Z,10.1
2023-11-02T00:25:08.694Z,10.1
2023-11-02T00:30:08.924Z,10.1
2023-11-02T00:35:08.083Z,10.1
2023-11-02T00:40:08.353Z,10.1
2023-11-02T00:45:08.502Z,10.1
2023-11-02T00:50:08.880Z,10.1
2023-11-02T00:55:09.053Z,10.1
2023-11-02T01:00:08.234Z,10.1
2023-11-02T01:05:08.657Z,10.3
2023-11-02T01:10:08.810Z,10.3
2023-11-02T01:15:08.959Z,10.5
2023-11-02T01:20:08.232Z,10.5
2023-11-02T01:25:08.418Z,10.5
2023-11-02T01:30:08.602Z,10.5
2023-11-02T01:35:08.787Z,10.5
2023-11-02T01:40:08.995Z,10.5
2023-11-02T01:45:08.257Z,10.8
2023-11-02T01:50:08.481Z,10.8
2023-11-02T01:55:09.640Z,10.8
2023-11-02T02:00:08.975Z,10.8
2023-11-02T02:05:09.124Z,10.8
2023-11-02T02:10:08.630Z,10.8
2023-11-02T02:15:08.849Z,11.0
2023-11-02T02:20:09.104Z,11.0
2023-11-02T02:25:08.287Z,11.0
2023-11-02T02:30:08.472Z,11.0
2023-11-02T02:35:08.677Z,11.0
2023-11-02T02:40:08.992Z,11.0
2023-11-02T02:45:08.246Z,11.1
2023-11-02T02:50:08.445Z,11.1
2023-11-02T02:55:08.688Z,11.1
2023-11-02T03:00:08.878Z,11.1
2023-11-02T03:05:09.139Z,11.1
2023-11-02T03:10:08.369Z,11.1
2023-11-02T03:15:08.500Z,11.1
2023-11-02T03:20:08.743Z,11.1
2023-11-02T03:25:09.088Z,11.1
2023-11-02T03:30:08.486Z,11.1
2023-11-02T03:35:08.697Z,11.3
2023-11-02T03:40:08.924Z,11.3
2023-11-02T03:45:08.140Z,11.3
2023-11-02T03:50:08.315Z,11.3
2023-11-02T03:55:08.528Z,11.3
2023-11-02T04:00:10.063Z,11.3
2023-11-02T04:05:18.244Z,11.3
2023-11-02T04:10:08.442Z,11.3
2023-11-02T04:15:08.647Z,11.6
2023-11-02T04:20:08.865Z,11.6
2023-11-02T04:25:09.044Z,11.6
2023-11-02T04:30:08.350Z,11.6
2023-11-02T04:35:08.654Z,11.6
2023-11-02T04:40:08.847Z,11.3
2023-11-02T04:45:09.165Z,11.6
2023-11-02T04:50:08.321Z,11.6
2023-11-02T04:55:08.460Z,11.6
2023-11-02T05:00:08.668Z,11.6
2023-11-02T05:05:02.936Z,11.6
2023-11-02T05:10:02.187Z,11.6
2023-11-02T05:15:02.605Z,11.6
2023-11-02T05:20:02.958Z,11.6
2023-11-02T05:25:02.227Z,11.6
2023-11-02T05:30:02.534Z,11.6
2023-11-02T05:35:02.950Z,11.6
2023-11-02T05:40:02.326Z,11.6
2023-11-02T05:45:02.734Z,11.6
2023-11-02T05:50:04.477Z,11.6
2023-11-02T05:55:02.887Z,11.6
2023-11-02T06:00:03.398Z,11.6
2023-11-02T06:05:02.766Z,11.8
2023-11-02T06:10:02.990Z,11.8
2023-11-02T06:15:02.416Z,11.8
2023-11-02T06:20:02.928Z,11.8
2023-11-02T06:25:02.337Z,11.8
2023-11-02T06:30:02.710Z,11.8
2023-11-02T06:35:03.189Z,12.0
2023-11-02T06:40:02.402Z,12.0
2023-11-02T06:45:02.548Z,11.6
2023-11-02T06:50:02.789Z,11.1
2023-11-02T06:55:03.140Z,10.8
2023-11-02T07:00:02.550Z,9.8
2023-11-02T07:05:03.089Z,9.6
2023-11-02T07:10:02.438Z,9.8
2023-11-02T07:15:02.830Z,9.6
2023-11-02T07:20:03.276Z,9.6
2023-11-02T07:25:02.682Z,9.6
2023-11-02T07:30:03.278Z,9.6
2023-11-02T07:35:02.584Z,9.6
2023-11-02T07:40:02.973Z,9.6
2023-11-02T07:45:02.375Z,10.0
2023-11-02T07:50:02.749Z,10.0
2023-11-02T07:55:03.382Z,10.0
2023-11-02T08:00:02.735Z,10.1
2023-11-02T08:05:03.135Z,10.1
2023-11-02T08:10:02.434Z,10.1
2023-11-02T08:15:02.889Z,10.1
2023-11-02T08:20:03.275Z,10.1
2023-11-02T08:25:02.579Z,10.8
2023-11-02T08:30:02.891Z,11.3
2023-11-02T08:35:03.168Z,11.3
2023-11-02T08:40:02.542Z,12.5
2023-11-02T08:45:02.920Z,12.5
2023-11-02T08:50:03.264Z,12.6
2023-11-02T08:55:02.606Z,12.6
2023-11-02T09:00:03.013Z,13.6
2023-11-02T09:05:02.308Z,13.3
2023-11-02T09:10:02.686Z,13.3
2023-11-02T09:15:03.086Z,13.1
2023-11-02T09:20:02.506Z,13.1
2023-11-02T09:25:02.774Z,13.1
2023-11-02T09:30:03.167Z,13.1
2023-11-02T09:35:02.610Z,13.1
2023-11-02T09:40:02.911Z,13.1
2023-11-02T09:45:03.228Z,13.3
2023-11-02T09:50:02.501Z,13.3
2023-11-02T09:55:02.871Z,13.5
2023-11-02T10:00:03.199Z,13.5
2023-11-02T10:05:02.551Z,13.6
2023-11-02T10:10:03.043Z,13.6
2023-11-02T10:15:02.377Z,13.8
2023-11-02T10:20:02.793Z,13.8
2023-11-02T10:25:03.100Z,13.6
2023-11-02T10:30:02.381Z,13.6
2023-11-02T10:35:02.588Z,13.6
2023-11-02T10:40:02.950Z,13.8
2023-11-02T10:45:02.173Z,13.8
2023-11-02T10:50:02.502Z,14.6
2023-11-02T10:55:02.735Z,14.6
2023-11-02T11:00:02.896Z,14.1
2023-11-02T11:05:03.247Z,14.1
2023-11-02T11:10:02.587Z,14.1
2023-11-02T11:15:02.888Z,14.3
2023-11-02T11:20:03.221Z,14.3
2023-11-02T11:25:02.650Z,14.8
2023-11-02T11:30:02.905Z,14.8
2023-11-02T11:35:10.494Z,14.8
2023-11-02T11:40:02.896Z,14.8
2023-11-02T11:45:02.276Z,15.0
2023-11-02T11:50:02.404Z,15.0
2023-11-02T11:55:02.721Z,14.8
2023-11-02T12:00:02.969Z,14.8
2023-11-02T12:05:02.363Z,15.0
2023-11-02T12:10:05.627Z,15.0
2023-11-02T12:15:02.885Z,15.0
2023-11-02T12:20:03.154Z,15.0
2023-11-02T12:25:02.393Z,15.1
2023-11-02T12:30:02.727Z,15.1
2023-11-02T12:35:03.935Z,15.1
2023-11-02T12:40:02.771Z,15.1
2023-11-02T12:45:03.216Z,15.6
2023-11-02T12:50:02.649Z,15.6
2023-11-02T12:55:03.200Z,15.3
2023-11-02T13:00:03.148Z,15.3
2023-11-02T13:05:02.373Z,15.3
2023-11-02T13:10:02.605Z,15.3
2023-11-02T13:15:03.053Z,15.0
2023-11-02T13:20:02.586Z,15.0
2023-11-02T13:25:03.002Z,14.8
2023-11-02T13:30:02.727Z,14.8
2023-11-02T13:35:03.097Z,14.6
2023-11-02T13:40:02.691Z,15.0
2023-11-02T13:45:02.981Z,14.8
2023-11-02T13:50:02.473Z,14.8
2023-11-02T13:55:02.927Z,14.5
2023-11-02T14:00:02.312Z,14.6
2023-11-02T14:05:03.801Z,14.5
2023-11-02T14:10:02.889Z,14.5
2023-11-02T14:15:03.258Z,14.5
2023-11-02T14:20:02.546Z,14.5
2023-11-02T14:25:03.017Z,14.3
2023-11-02T14:30:02.419Z,14.3
2023-11-02T14:35:02.718Z,14.1
2023-11-02T14:40:04.347Z,14.0
2023-11-02T14:45:02.744Z,13.8
2023-11-02T14:50:03.051Z,13.8
2023-11-02T14:55:05.014Z,13.8
2023-11-02T15:00:02.798Z,13.8
2023-11-02T15:05:03.280Z,14.1
2023-11-02T15:10:02.635Z,14.1
2023-11-02T15:15:02.855Z,14.1
2023-11-02T15:20:03.240Z,14.0
2023-11-02T15:25:02.461Z,14.1
2023-11-02T15:30:02.965Z,14.1
2023-11-02T15:35:02.311Z,14.3
2023-11-02T15:40:02.725Z,14.1
2023-11-02T15:45:03.119Z,14.0
2023-11-02T15:50:02.430Z,14.1
2023-11-02T15:55:02.683Z,14.0
2023-11-02T16:00:03.021Z,14.0
2023-11-02T16:05:02.352Z,13.8
2023-11-02T16:10:02.701Z,13.8
2023-11-02T16:15:03.053Z,13.6
2023-11-02T16:20:02.584Z,13.6
2023-11-02T16:25:02.970Z,13.6
2023-11-02T16:30:02.337Z,13.6
2023-11-02T16:35:12.512Z,13.6
2023-11-02T16:40:02.925Z,13.6
2023-11-02T16:45:03.213Z,13.5
2023-11-02T16:50:02.496Z,13.1
2023-11-02T16:55:02.814Z,13.3
2023-11-02T17:00:03.224Z,13.3
2023-11-02T17:05:02.542Z,13.5
2023-11-02T17:10:02.801Z,13.3
2023-11-02T17:15:04.611Z,13.3
2023-11-02T17:20:03.149Z,13.1
2023-11-02T17:25:02.687Z,12.3
2023-11-02T17:30:03.034Z,12.1
2023-11-02T17:35:02.538Z,12.0
2023-11-02T17:40:03.032Z,12.0
2023-11-02T17:45:02.425Z,12.0
2023-11-02T17:50:02.712Z,12.1
2023-11-02T17:55:03.256Z,12.0
2023-11-02T18:00:02.570Z,12.0
2023-11-02T18:05:03.506Z,12.1
2023-11-02T18:10:02.854Z,12.0
2023-11-02T18:15:03.370Z,12.1
2023-11-02T18:20:02.706Z,12.0
2023-11-02T18:25:03.143Z,12.0
2023-11-02T18:30:02.543Z,12.1
2023-11-02T18:35:02.847Z,11.8
2023-11-02T18:40:03.281Z,11.6
2023-11-02T18:45:02.556Z,11.6
2023-11-02T18:50:02.987Z,11.6
2023-11-02T18:55:02.436Z,11.3
2023-11-02T19:00:02.646Z,11.6
2023-11-02T19:05:03.091Z,11.3
2023-11-02T19:10:02.574Z,11.6
2023-11-02T19:15:02.935Z,11.6
2023-11-02T19:20:02.182Z,11.8
2023-11-02T19:25:02.531Z,12.0
2023-11-02T19:30:02.801Z,12.1
2023-11-02T19:35:03.147Z,12.0
2023-11-02T19:40:02.527Z,12.0
2023-11-02T19:45:02.740Z,12.0
2023-11-02T19:50:06.677Z,12.0
2023-11-02T19:55:03.128Z,11.8
2023-11-02T20:00:02.544Z,11.8
2023-11-02T20:05:02.976Z,11.6
2023-11-02T20:10:02.261Z,11.6
2023-11-02T20:15:02.602Z,11.8
2023-11-02T20:20:02.926Z,11.8
2023-11-02T20:25:02.210Z,11.8
2023-11-02T20:30:02.546Z,11.8
2023-11-02T20:35:02.887Z,11.6
2023-11-02T20:40:02.435Z,11.6
2023-11-02T20:45:02.851Z,11.6
2023-11-02T20:50:03.159Z,11.6
2023-11-02T20:55:02.531Z,11.6
2023-11-02T21:00:03.014Z,11.3
2023-11-02T21:05:02.458Z,11.0
2023-11-02T21:10:02.893Z,10.8
2023-11-02T21:15:03.200Z,10.8
2023-11-02T21:20:02.496Z,10.8
2023-11-02T21:25:02.780Z,10.5
2023-11-02T21:30:02.975Z,10.5
2023-11-02T21:35:02.307Z,10.5
2023-11-02T21:40:02.682Z,10.5
2023-11-02T21:45:02.891Z,10.5
2023-11-02T21:50:03.263Z,10.5
2023-11-02T21:55:02.608Z,10.3
2023-11-02T22:00:03.056Z,10.1
2023-11-02T22:05:02.476Z,10.1
2023-11-02T22:10:02.932Z,10.0
2023-11-02T22:15:02.280Z,9.3
2023-11-02T22:20:02.580Z,9.0
2023-11-02T22:25:03.068Z,8.6
2023-11-02T22:30:02.499Z,8.0
2023-11-02T22:35:03.009Z,8.0
2023-11-02T22:40:02.436Z,8.0
2023-11-02T22:45:03.078Z,7.4
2023-11-02T22:50:04.153Z,7.0
2023-11-02T22:55:02.756Z,7.4
2023-11-02T23:00:03.096Z,7.1
2023-11-02T23:05:15.323Z,7.0
2023-11-02T23:10:08.599Z,7.1
2023-11-02T23:15:08.769Z,7.4
2023-11-02T23:20:08.988Z,7.4
2023-11-02T23:25:08.292Z,7.1
2023-11-02T23:30:08.531Z,7.1
2023-11-02T23:35:08.792Z,7.5
2023-11-02T23:40:08.960Z,7.1
2023-11-02T23:45:08.121Z,7.1
2023-11-02T23:50:08.342Z,7.1
2023-11-02T23:55:08.562Z,7.4
